LSMP

Payerne Airport

Airport
ICAO code
LSMP
Summary
ICAO Region
EUR
ICAO Territory
Location

Morens, Fribourg

Serving
Payerne
Elevation
1465 ft
Coordinates
46° 50' 36" N , 6° 54' 54" E
Metar
Observation
LSMP 111650Z AUTO 06009KT 020V090 9999NDV NCD 31/11 Q1016 RMK
Station
Payerne
Date/Time
2022-08-11 16:50:00
Wind direction
60°
Wind speed
09 kts
Lowest cloud amount
n/a
Temperature
31°C
Dew point
11°C
Humidity
29%
QNH
1016 hPa
Weather condition
n/a

Payerne Airport is a military airfield of the Swiss Air Force north of Payerne in Switzerland, located approximately halfway between Lausanne and Bern.

Climatology

Warm mediterranean climate (Köppen climate classification Cfa)

Runways

Designator Length Width Surface Rops
5/23 2858 40 ASP No/No

Airport map

Aerial View

SKYbrary Partners:

Safety knowledge contributed by: